JAL3721 RJFK-RJKA
Flight info
| Callsign | JAL3721 |
|---|---|
| Flight time | N/A |
| Altitude | 26000 |
| Route | MIZOB1 HKC Y45 BOMAP Y25 KANAH |
| Aircraft | A21N/M-V/N |
Departure
| Time | 2026-04-27 13:54 |
|---|---|
| Airport | Kagoshima Airport (RJFK) |
Arrival
| Time | N/A |
|---|---|
| Airport | Amami Airport (RJKA) |
| Time | Latitude | Longitude | Altitude | Speed | Heading |
|---|---|---|---|---|---|
| 2026-04-27 13:24 | 31.80208 | 130.71606 | 899 ft | 0 kts | 241° |
| 2026-04-27 13:44 | 31.80212 | 130.71614 | 900 ft | 2 kts | 239° |
| 2026-04-27 13:44 | 31.80220 | 130.71631 | 900 ft | 2 kts | 239° |
| 2026-04-27 13:44 | 31.80229 | 130.71647 | 901 ft | 2 kts | 237° |
| 2026-04-27 13:45 | 31.80238 | 130.71663 | 901 ft | 2 kts | 234° |
| 2026-04-27 13:45 | 31.80248 | 130.71679 | 902 ft | 2 kts | 231° |
| 2026-04-27 13:45 | 31.80259 | 130.71694 | 902 ft | 2 kts | 226° |
| 2026-04-27 13:45 | 31.80271 | 130.71707 | 902 ft | 2 kts | 220° |
| 2026-04-27 13:46 | 31.80284 | 130.71718 | 902 ft | 2 kts | 208° |
| 2026-04-27 13:46 | 31.80300 | 130.71726 | 902 ft | 2 kts | 190° |
| 2026-04-27 13:46 | 31.80316 | 130.71726 | 902 ft | 2 kts | 165° |
| 2026-04-27 13:46 | 31.80327 | 130.71721 | 902 ft | 1 kts | 152° |
| 2026-04-27 13:47 | 31.80328 | 130.71720 | 902 ft | 0 kts | 151° |
| 2026-04-27 13:47 | 31.80329 | 130.71720 | 902 ft | 0 kts | 151° |
| 2026-04-27 13:48 | 31.80319 | 130.71726 | 902 ft | 4 kts | 151° |
| 2026-04-27 13:49 | 31.80283 | 130.71750 | 902 ft | 8 kts | 150° |
| 2026-04-27 13:49 | 31.80225 | 130.71789 | 901 ft | 11 kts | 149° |
| 2026-04-27 13:49 | 31.80149 | 130.71841 | 898 ft | 14 kts | 150° |
| 2026-04-27 13:49 | 31.80055 | 130.71905 | 896 ft | 17 kts | 150° |
| 2026-04-27 13:50 | 31.79945 | 130.71979 | 891 ft | 19 kts | 150° |
| 2026-04-27 13:50 | 31.79826 | 130.72059 | 886 ft | 20 kts | 150° |
| 2026-04-27 13:50 | 31.79700 | 130.72145 | 882 ft | 21 kts | 149° |
| 2026-04-27 13:50 | 31.79568 | 130.72234 | 880 ft | 23 kts | 150° |
| 2026-04-27 13:51 | 31.79426 | 130.72330 | 879 ft | 24 kts | 150° |
| 2026-04-27 13:51 | 31.79280 | 130.72429 | 878 ft | 22 kts | 150° |
| 2026-04-27 13:51 | 31.79158 | 130.72511 | 876 ft | 17 kts | 149° |
| 2026-04-27 13:51 | 31.79124 | 130.72612 | 873 ft | 6 kts | 71° |
| 2026-04-27 13:52 | 31.79131 | 130.72627 | 872 ft | 0 kts | 52° |
| 2026-04-27 13:52 | 31.79138 | 130.72637 | 872 ft | 3 kts | 52° |
| 2026-04-27 13:52 | 31.79161 | 130.72677 | 872 ft | 9 kts | 56° |
| 2026-04-27 13:52 | 31.79224 | 130.72687 | 873 ft | 12 kts | 334° |
| 2026-04-27 13:53 | 31.79437 | 130.72545 | 879 ft | 63 kts | 330° |
| 2026-04-27 13:53 | 31.80017 | 130.72154 | 890 ft | 127 kts | 330° |
| 2026-04-27 13:53 | 31.80908 | 130.71553 | 998 ft | 159 kts | 330° |
| 2026-04-27 13:54 | 31.81853 | 130.70887 | 1642 ft | 157 kts | 329° |
| 2026-04-27 13:54 | 31.82784 | 130.70218 | 2255 ft | 161 kts | 328° |
| 2026-04-27 13:54 | 31.83755 | 130.69513 | 2786 ft | 172 kts | 329° |
| 2026-04-27 13:54 | 31.84873 | 130.68777 | 3266 ft | 195 kts | 329° |
| 2026-04-27 13:55 | 31.86096 | 130.67920 | 3845 ft | 216 kts | 327° |
| 2026-04-27 13:55 | 31.87193 | 130.66572 | 4269 ft | 248 kts | 295° |
| 2026-04-27 13:55 | 31.87454 | 130.64500 | 4847 ft | 267 kts | 258° |
| 2026-04-27 13:55 | 31.86619 | 130.62566 | 5784 ft | 272 kts | 226° |
| 2026-04-27 13:56 | 31.84964 | 130.61463 | 6730 ft | 282 kts | 194° |
| 2026-04-27 13:56 | 31.82974 | 130.61219 | 7690 ft | 289 kts | 187° |
| 2026-04-27 13:56 | 31.80999 | 130.60979 | 8936 ft | 284 kts | 192° |
| 2026-04-27 13:56 | 31.79045 | 130.60593 | 9972 ft | 287 kts | 194° |
| 2026-04-27 13:57 | 31.77023 | 130.60120 | 10499 ft | 308 kts | 195° |
| 2026-04-27 13:57 | 31.74828 | 130.59573 | 10846 ft | 335 kts | 196° |
| 2026-04-27 13:57 | 31.72498 | 130.58986 | 11471 ft | 348 kts | 196° |
| 2026-04-27 13:57 | 31.70107 | 130.58372 | 12315 ft | 353 kts | 198° |
| 2026-04-27 13:58 | 31.67777 | 130.57456 | 13230 ft | 354 kts | 205° |
| 2026-04-27 13:58 | 31.65469 | 130.56413 | 14125 ft | 357 kts | 205° |
| 2026-04-27 13:58 | 31.63144 | 130.55350 | 14942 ft | 360 kts | 206° |
| 2026-04-27 13:58 | 31.60797 | 130.54278 | 15763 ft | 363 kts | 206° |
| 2026-04-27 13:59 | 31.58433 | 130.53200 | 16568 ft | 366 kts | 206° |
| 2026-04-27 13:59 | 31.56040 | 130.52139 | 17352 ft | 369 kts | 206° |
| 2026-04-27 13:59 | 31.53623 | 130.51081 | 18123 ft | 372 kts | 206° |
| 2026-04-27 13:59 | 31.51181 | 130.50013 | 18810 ft | 375 kts | 206° |
| 2026-04-27 14:00 | 31.48732 | 130.48935 | 19478 ft | 378 kts | 206° |
| 2026-04-27 14:00 | 31.46257 | 130.47845 | 20120 ft | 381 kts | 206° |
| 2026-04-27 14:00 | 31.43774 | 130.46750 | 20804 ft | 383 kts | 207° |
| 2026-04-27 14:00 | 31.41268 | 130.45644 | 21481 ft | 386 kts | 207° |
| 2026-04-27 14:01 | 31.38743 | 130.44533 | 22161 ft | 390 kts | 207° |
| 2026-04-27 14:01 | 31.36205 | 130.43421 | 22999 ft | 389 kts | 207° |
| 2026-04-27 14:01 | 31.33683 | 130.42318 | 23873 ft | 385 kts | 207° |
| 2026-04-27 14:01 | 31.31185 | 130.41225 | 24532 ft | 384 kts | 208° |
| 2026-04-27 14:02 | 31.28683 | 130.40128 | 25155 ft | 384 kts | 208° |
| 2026-04-27 14:02 | 31.26183 | 130.38999 | 25674 ft | 385 kts | 209° |